sensor_id;sensor_type;location;lat;lon;timestamp;P1;durP1;ratioP1;P2;durP2;ratioP2
2652;SDS011;1336;48.692;9.144;2023-02-12T06:00:17;30.17;;;27.07;;
2652;SDS011;1336;48.692;9.144;2023-02-12T06:01:10;28.40;;;25.40;;
2652;SDS011;1336;48.692;9.144;2023-02-12T06:02:03;30.20;;;26.77;;
2652;SDS011;1336;48.692;9.144;2023-02-12T06:02:55;29.63;;;26.50;;
2652;SDS011;1336;48.692;9.144;2023-02-12T06:03:45;27.30;;;24.60;;
2652;SDS011;1336;48.692;9.144;2023-02-12T06:04:37;27.92;;;24.95;;
2652;SDS011;1336;48.692;9.144;2023-02-12T06:05:28;28.23;;;25.23;;
2652;SDS011;1336;48.692;9.144;2023-02-12T06:06:20;27.70;;;24.88;;
2652;SDS011;1336;48.692;9.144;2023-02-12T06:07:11;28.80;;;25.90;;
2652;SDS011;1336;48.692;9.144;2023-02-12T06:08:02;26.08;;;23.45;;
2652;SDS011;1336;48.692;9.144;2023-02-12T06:08:53;27.55;;;24.42;;
2652;SDS011;1336;48.692;9.144;2023-02-12T06:09:46;28.45;;;25.42;;
2652;SDS011;1336;48.692;9.144;2023-02-12T06:10:36;27.77;;;24.77;;
2652;SDS011;1336;48.692;9.144;2023-02-12T06:11:28;28.48;;;25.50;;
2652;SDS011;1336;48.692;9.144;2023-02-12T06:12:19;28.10;;;25.20;;
2652;SDS011;1336;48.692;9.144;2023-02-12T06:13:11;29.38;;;26.35;;
2652;SDS011;1336;48.692;9.144;2023-02-12T06:14:02;30.27;;;27.07;;
2652;SDS011;1336;48.692;9.144;2023-02-12T06:14:54;29.40;;;26.30;;
2652;SDS011;1336;48.692;9.144;2023-02-12T06:15:46;31.13;;;27.30;;
2652;SDS011;1336;48.692;9.144;2023-02-12T06:16:38;29.42;;;26.33;;
2652;SDS011;1336;48.692;9.144;2023-02-12T06:17:29;30.10;;;27.02;;
2652;SDS011;1336;48.692;9.144;2023-02-12T06:18:21;32.78;;;29.48;;
2652;SDS011;1336;48.692;9.144;2023-02-12T06:19:11;30.07;;;26.87;;
2652;SDS011;1336;48.692;9.144;2023-02-12T06:20:04;32.35;;;28.85;;
2652;SDS011;1336;48.692;9.144;2023-02-12T06:20:55;31.85;;;28.50;;
2652;SDS011;1336;48.692;9.144;2023-02-12T06:21:46;34.20;;;29.35;;
2652;SDS011;1336;48.692;9.144;2023-02-12T06:22:37;32.80;;;29.30;;
2652;SDS011;1336;48.692;9.144;2023-02-12T06:23:29;39.75;;;31.92;;
2652;SDS011;1336;48.692;9.144;2023-02-12T06:24:20;33.37;;;29.80;;
2652;SDS011;1336;48.692;9.144;2023-02-12T06:25:11;38.28;;;30.10;;
2652;SDS011;1336;48.692;9.144;2023-02-12T06:26:02;35.50;;;29.77;;
2652;SDS011;1336;48.692;9.144;2023-02-12T06:26:54;33.38;;;29.98;;
2652;SDS011;1336;48.692;9.144;2023-02-12T06:27:45;35.30;;;30.77;;
2652;SDS011;1336;48.692;9.144;2023-02-12T06:28:36;35.00;;;31.40;;
2652;SDS011;1336;48.692;9.144;2023-02-12T06:29:27;34.50;;;30.90;;
2652;SDS011;1336;48.692;9.144;2023-02-12T06:30:19;34.60;;;30.70;;
2652;SDS011;1336;48.692;9.144;2023-02-12T06:31:21;35.13;;;31.17;;
2652;SDS011;1336;48.692;9.144;2023-02-12T06:32:14;37.30;;;30.80;;
2652;SDS011;1336;48.692;9.144;2023-02-12T06:33:05;35.97;;;32.13;;
2652;SDS011;1336;48.692;9.144;2023-02-12T06:33:57;35.42;;;30.55;;
2652;SDS011;1336;48.692;9.144;2023-02-12T06:34:49;34.40;;;30.35;;
2652;SDS011;1336;48.692;9.144;2023-02-12T06:35:41;34.22;;;30.55;;
2652;SDS011;1336;48.692;9.144;2023-02-12T06:36:32;36.53;;;30.93;;
2652;SDS011;1336;48.692;9.144;2023-02-12T06:37:24;35.83;;;31.95;;
2652;SDS011;1336;48.692;9.144;2023-02-12T06:38:15;35.30;;;31.60;;
2652;SDS011;1336;48.692;9.144;2023-02-12T06:39:07;36.78;;;32.72;;
2652;SDS011;1336;48.692;9.144;2023-02-12T06:39:58;34.65;;;31.15;;
2652;SDS011;1336;48.692;9.144;2023-02-12T06:40:49;37.38;;;33.08;;
2652;SDS011;1336;48.692;9.144;2023-02-12T06:41:40;39.43;;;33.10;;
2652;SDS011;1336;48.692;9.144;2023-02-12T06:42:32;36.40;;;32.60;;
2652;SDS011;1336;48.692;9.144;2023-02-12T06:43:23;36.73;;;32.93;;
2652;SDS011;1336;48.692;9.144;2023-02-12T06:44:15;34.13;;;30.52;;
2652;SDS011;1336;48.692;9.144;2023-02-12T06:45:06;34.97;;;31.23;;
2652;SDS011;1336;48.692;9.144;2023-02-12T06:45:59;35.55;;;31.85;;
2652;SDS011;1336;48.692;9.144;2023-02-12T06:46:52;33.15;;;29.85;;
2652;SDS011;1336;48.692;9.144;2023-02-12T06:47:43;32.15;;;28.67;;
2652;SDS011;1336;48.692;9.144;2023-02-12T06:48:34;31.63;;;28.33;;
2652;SDS011;1336;48.692;9.144;2023-02-12T06:49:26;32.15;;;28.30;;
2652;SDS011;1336;48.692;9.144;2023-02-12T06:50:17;31.00;;;27.87;;
2652;SDS011;1336;48.692;9.144;2023-02-12T06:51:10;33.05;;;28.33;;
2652;SDS011;1336;48.692;9.144;2023-02-12T06:52:02;30.17;;;27.27;;
2652;SDS011;1336;48.692;9.144;2023-02-12T06:52:53;32.42;;;28.95;;
2652;SDS011;1336;48.692;9.144;2023-02-12T06:53:44;31.73;;;28.50;;
2652;SDS011;1336;48.692;9.144;2023-02-12T06:54:37;30.45;;;27.35;;
2652;SDS011;1336;48.692;9.144;2023-02-12T06:55:28;30.17;;;27.13;;
2652;SDS011;1336;48.692;9.144;2023-02-12T06:56:20;32.40;;;29.00;;
2652;SDS011;1336;48.692;9.144;2023-02-12T06:57:12;30.60;;;27.50;;
2652;SDS011;1336;48.692;9.144;2023-02-12T06:58:04;31.42;;;28.13;;
2652;SDS011;1336;48.692;9.144;2023-02-12T06:58:55;30.90;;;27.70;;
2652;SDS011;1336;48.692;9.144;2023-02-12T06:59:50;30.83;;;27.42;;
2652;SDS011;1336;48.692;9.144;2023-02-12T07:00:40;34.10;;;29.03;;
2652;SDS011;1336;48.692;9.144;2023-02-12T07:01:32;30.90;;;27.60;;
2652;SDS011;1336;48.692;9.144;2023-02-12T07:02:24;31.40;;;28.07;;
2652;SDS011;1336;48.692;9.144;2023-02-12T07:03:16;31.55;;;28.35;;
2652;SDS011;1336;48.692;9.144;2023-02-12T07:04:06;29.50;;;26.33;;
2652;SDS011;1336;48.692;9.144;2023-02-12T07:04:58;29.63;;;26.63;;
2652;SDS011;1336;48.692;9.144;2023-02-12T07:05:49;34.03;;;28.17;;
2652;SDS011;1336;48.692;9.144;2023-02-12T07:06:41;31.27;;;27.85;;
2652;SDS011;1336;48.692;9.144;2023-02-12T07:07:31;31.07;;;27.70;;
2652;SDS011;1336;48.692;9.144;2023-02-12T07:08:23;32.20;;;28.65;;
2652;SDS011;1336;48.692;9.144;2023-02-12T07:09:14;34.90;;;30.20;;
2652;SDS011;1336;48.692;9.144;2023-02-12T07:10:06;33.63;;;29.73;;
2652;SDS011;1336;48.692;9.144;2023-02-12T07:10:57;31.23;;;27.58;;
2652;SDS011;1336;48.692;9.144;2023-02-12T07:11:49;32.38;;;28.90;;
2652;SDS011;1336;48.692;9.144;2023-02-12T07:12:41;33.22;;;29.77;;
2652;SDS011;1336;48.692;9.144;2023-02-12T07:13:32;35.25;;;31.65;;
2652;SDS011;1336;48.692;9.144;2023-02-12T07:14:24;37.70;;;32.65;;
2652;SDS011;1336;48.692;9.144;2023-02-12T07:15:17;35.75;;;32.00;;
2652;SDS011;1336;48.692;9.144;2023-02-12T07:16:08;35.63;;;31.83;;
2652;SDS011;1336;48.692;9.144;2023-02-12T07:17:01;38.20;;;34.28;;
2652;SDS011;1336;48.692;9.144;2023-02-12T07:17:55;38.00;;;33.95;;
2652;SDS011;1336;48.692;9.144;2023-02-12T07:18:47;35.38;;;31.63;;
2652;SDS011;1336;48.692;9.144;2023-02-12T07:19:38;33.77;;;30.30;;
2652;SDS011;1336;48.692;9.144;2023-02-12T07:20:30;33.53;;;30.15;;
2652;SDS011;1336;48.692;9.144;2023-02-12T07:21:20;37.10;;;30.10;;
2652;SDS011;1336;48.692;9.144;2023-02-12T07:22:12;32.92;;;29.73;;
2652;SDS011;1336;48.692;9.144;2023-02-12T07:23:03;34.57;;;30.87;;
2652;SDS011;1336;48.692;9.144;2023-02-12T07:23:54;31.25;;;27.60;;
2652;SDS011;1336;48.692;9.144;2023-02-12T07:24:45;30.37;;;27.30;;
2652;SDS011;1336;48.692;9.144;2023-02-12T07:25:37;31.98;;;28.60;;
2652;SDS011;1336;48.692;9.144;2023-02-12T07:26:28;29.70;;;26.67;;
2652;SDS011;1336;48.692;9.144;2023-02-12T07:27:19;36.25;;;29.95;;
2652;SDS011;1336;48.692;9.144;2023-02-12T07:28:10;33.70;;;30.20;;
2652;SDS011;1336;48.692;9.144;2023-02-12T07:29:02;34.38;;;30.88;;
2652;SDS011;1336;48.692;9.144;2023-02-12T07:29:53;32.75;;;29.35;;
2652;SDS011;1336;48.692;9.144;2023-02-12T07:30:44;37.83;;;31.92;;
2652;SDS011;1336;48.692;9.144;2023-02-12T07:31:35;39.40;;;35.13;;
2652;SDS011;1336;48.692;9.144;2023-02-12T07:32:27;41.00;;;36.55;;
2652;SDS011;1336;48.692;9.144;2023-02-12T07:33:19;37.17;;;33.20;;
2652;SDS011;1336;48.692;9.144;2023-02-12T07:34:11;36.83;;;32.90;;
2652;SDS011;1336;48.692;9.144;2023-02-12T07:35:01;35.00;;;31.37;;
2652;SDS011;1336;48.692;9.144;2023-02-12T07:35:53;35.83;;;32.25;;
2652;SDS011;1336;48.692;9.144;2023-02-12T07:36:44;34.53;;;31.10;;
2652;SDS011;1336;48.692;9.144;2023-02-12T07:37:36;39.78;;;34.72;;
2652;SDS011;1336;48.692;9.144;2023-02-12T07:38:27;37.90;;;33.90;;
2652;SDS011;1336;48.692;9.144;2023-02-12T07:39:19;38.58;;;34.58;;
2652;SDS011;1336;48.692;9.144;2023-02-12T07:40:09;37.50;;;33.60;;
2652;SDS011;1336;48.692;9.144;2023-02-12T07:41:05;37.45;;;33.45;;
2652;SDS011;1336;48.692;9.144;2023-02-12T07:41:57;37.50;;;33.60;;
2652;SDS011;1336;48.692;9.144;2023-02-12T07:42:49;35.75;;;31.50;;
2652;SDS011;1336;48.692;9.144;2023-02-12T07:43:45;37.90;;;34.03;;
2652;SDS011;1336;48.692;9.144;2023-02-12T07:44:37;37.30;;;33.53;;
2652;SDS011;1336;48.692;9.144;2023-02-12T07:45:28;36.67;;;32.83;;
2652;SDS011;1336;48.692;9.144;2023-02-12T07:46:20;36.47;;;32.70;;
2652;SDS011;1336;48.692;9.144;2023-02-12T07:47:15;36.05;;;32.33;;
2652;SDS011;1336;48.692;9.144;2023-02-12T07:48:07;37.10;;;33.20;;
2652;SDS011;1336;48.692;9.144;2023-02-12T07:48:59;34.83;;;31.23;;
2652;SDS011;1336;48.692;9.144;2023-02-12T07:49:53;36.20;;;32.60;;
2652;SDS011;1336;48.692;9.144;2023-02-12T07:50:44;37.03;;;33.20;;
2652;SDS011;1336;48.692;9.144;2023-02-12T07:51:36;37.75;;;33.85;;
2652;SDS011;1336;48.692;9.144;2023-02-12T07:52:27;38.00;;;34.00;;
2652;SDS011;1336;48.692;9.144;2023-02-12T07:53:19;33.30;;;29.85;;
2652;SDS011;1336;48.692;9.144;2023-02-12T07:54:09;33.30;;;29.90;;
2652;SDS011;1336;48.692;9.144;2023-02-12T07:55:01;32.45;;;29.05;;
2652;SDS011;1336;48.692;9.144;2023-02-12T07:55:52;33.20;;;29.80;;
2652;SDS011;1336;48.692;9.144;2023-02-12T07:56:44;33.65;;;30.02;;
2652;SDS011;1336;48.692;9.144;2023-02-12T07:57:35;33.38;;;29.75;;
2652;SDS011;1336;48.692;9.144;2023-02-12T07:58:27;34.65;;;30.83;;
2652;SDS011;1336;48.692;9.144;2023-02-12T07:59:18;35.50;;;31.80;;
2652;SDS011;1336;48.692;9.144;2023-02-12T08:00:10;33.60;;;30.00;;
2652;SDS011;1336;48.692;9.144;2023-02-12T08:01:10;35.38;;;31.60;;
2652;SDS011;1336;48.692;9.144;2023-02-12T08:02:02;39.28;;;32.58;;
2652;SDS011;1336;48.692;9.144;2023-02-12T08:02:54;34.22;;;30.52;;
2652;SDS011;1336;48.692;9.144;2023-02-12T08:03:45;35.67;;;30.60;;
2652;SDS011;1336;48.692;9.144;2023-02-12T08:04:39;33.28;;;29.77;;
2652;SDS011;1336;48.692;9.144;2023-02-12T08:05:30;31.45;;;28.00;;
2652;SDS011;1336;48.692;9.144;2023-02-12T08:06:23;31.98;;;28.58;;
2652;SDS011;1336;48.692;9.144;2023-02-12T08:07:15;31.40;;;28.10;;
2652;SDS011;1336;48.692;9.144;2023-02-12T08:08:07;32.55;;;29.23;;
2652;SDS011;1336;48.692;9.144;2023-02-12T08:08:58;33.30;;;29.83;;
2652;SDS011;1336;48.692;9.144;2023-02-12T08:09:51;32.63;;;29.20;;
2652;SDS011;1336;48.692;9.144;2023-02-12T08:10:42;32.80;;;29.30;;
2652;SDS011;1336;48.692;9.144;2023-02-12T08:11:34;32.90;;;29.50;;
2652;SDS011;1336;48.692;9.144;2023-02-12T08:12:26;32.30;;;29.08;;
2652;SDS011;1336;48.692;9.144;2023-02-12T08:13:18;34.00;;;30.45;;
2652;SDS011;1336;48.692;9.144;2023-02-12T08:14:09;32.50;;;29.03;;
2652;SDS011;1336;48.692;9.144;2023-02-12T08:15:03;30.77;;;27.67;;
2652;SDS011;1336;48.692;9.144;2023-02-12T08:15:58;34.53;;;30.00;;
2652;SDS011;1336;48.692;9.144;2023-02-12T08:16:50;31.08;;;27.67;;
2652;SDS011;1336;48.692;9.144;2023-02-12T08:17:41;32.67;;;29.17;;
2652;SDS011;1336;48.692;9.144;2023-02-12T08:18:33;33.85;;;30.40;;
2652;SDS011;1336;48.692;9.144;2023-02-12T08:19:24;35.08;;;31.38;;
2652;SDS011;1336;48.692;9.144;2023-02-12T08:20:17;34.88;;;30.48;;
2652;SDS011;1336;48.692;9.144;2023-02-12T08:21:09;34.60;;;29.92;;
2652;SDS011;1336;48.692;9.144;2023-02-12T08:22:02;32.58;;;29.23;;
2652;SDS011;1336;48.692;9.144;2023-02-12T08:22:53;32.47;;;29.17;;
2652;SDS011;1336;48.692;9.144;2023-02-12T08:23:45;32.85;;;29.55;;
2652;SDS011;1336;48.692;9.144;2023-02-12T08:24:38;32.80;;;29.17;;
2652;SDS011;1336;48.692;9.144;2023-02-12T08:25:31;32.65;;;29.15;;
2652;SDS011;1336;48.692;9.144;2023-02-12T08:26:23;31.70;;;28.33;;
2652;SDS011;1336;48.692;9.144;2023-02-12T08:27:17;33.95;;;30.63;;
2652;SDS011;1336;48.692;9.144;2023-02-12T08:28:08;32.47;;;28.97;;
2652;SDS011;1336;48.692;9.144;2023-02-12T08:29:00;33.60;;;30.02;;
2652;SDS011;1336;48.692;9.144;2023-02-12T08:29:52;32.28;;;28.90;;
2652;SDS011;1336;48.692;9.144;2023-02-12T08:30:44;33.10;;;29.80;;
2652;SDS011;1336;48.692;9.144;2023-02-12T08:31:36;35.07;;;30.73;;
2652;SDS011;1336;48.692;9.144;2023-02-12T08:32:28;32.60;;;29.08;;
2652;SDS011;1336;48.692;9.144;2023-02-12T08:33:21;33.22;;;29.83;;
2652;SDS011;1336;48.692;9.144;2023-02-12T08:34:15;32.25;;;29.02;;
2652;SDS011;1336;48.692;9.144;2023-02-12T08:35:07;34.65;;;29.38;;
2652;SDS011;1336;48.692;9.144;2023-02-12T08:36:01;33.63;;;30.17;;
2652;SDS011;1336;48.692;9.144;2023-02-12T08:36:54;33.22;;;28.83;;
2652;SDS011;1336;48.692;9.144;2023-02-12T08:37:46;32.70;;;29.42;;
2652;SDS011;1336;48.692;9.144;2023-02-12T08:38:37;32.37;;;28.97;;
2652;SDS011;1336;48.692;9.144;2023-02-12T08:39:30;32.42;;;29.02;;
2652;SDS011;1336;48.692;9.144;2023-02-12T08:40:20;31.27;;;28.17;;
2652;SDS011;1336;48.692;9.144;2023-02-12T08:41:13;33.50;;;30.10;;
2652;SDS011;1336;48.692;9.144;2023-02-12T08:42:05;31.63;;;28.33;;
2652;SDS011;1336;48.692;9.144;2023-02-12T08:42:57;32.03;;;28.58;;
2652;SDS011;1336;48.692;9.144;2023-02-12T08:43:48;31.40;;;27.40;;
2652;SDS011;1336;48.692;9.144;2023-02-12T08:44:40;31.73;;;28.52;;
2652;SDS011;1336;48.692;9.144;2023-02-12T08:45:31;32.92;;;29.42;;
2652;SDS011;1336;48.692;9.144;2023-02-12T08:46:24;33.30;;;29.83;;
2652;SDS011;1336;48.692;9.144;2023-02-12T08:47:16;32.38;;;29.08;;
2652;SDS011;1336;48.692;9.144;2023-02-12T08:48:07;32.78;;;29.40;;
2652;SDS011;1336;48.692;9.144;2023-02-12T08:48:59;32.97;;;29.43;;
2652;SDS011;1336;48.692;9.144;2023-02-12T08:49:52;32.15;;;28.70;;
2652;SDS011;1336;48.692;9.144;2023-02-12T08:50:42;34.00;;;30.43;;
2652;SDS011;1336;48.692;9.144;2023-02-12T08:51:36;34.47;;;30.85;;
2652;SDS011;1336;48.692;9.144;2023-02-12T08:52:29;34.47;;;30.38;;
2652;SDS011;1336;48.692;9.144;2023-02-12T08:53:20;33.42;;;30.02;;
2652;SDS011;1336;48.692;9.144;2023-02-12T08:54:12;32.77;;;29.43;;
2652;SDS011;1336;48.692;9.144;2023-02-12T08:55:05;36.35;;;32.25;;
2652;SDS011;1336;48.692;9.144;2023-02-12T08:55:56;33.88;;;30.05;;
2652;SDS011;1336;48.692;9.144;2023-02-12T08:56:48;37.75;;;30.20;;
2652;SDS011;1336;48.692;9.144;2023-02-12T08:57:41;34.70;;;31.02;;
2652;SDS011;1336;48.692;9.144;2023-02-12T08:58:32;34.92;;;31.30;;
2652;SDS011;1336;48.692;9.144;2023-02-12T08:59:23;34.22;;;30.55;;
2652;SDS011;1336;48.692;9.144;2023-02-12T09:00:16;33.95;;;30.50;;
2652;SDS011;1336;48.692;9.144;2023-02-12T09:01:08;35.72;;;32.03;;
2652;SDS011;1336;48.692;9.144;2023-02-12T09:02:01;35.58;;;31.75;;
2652;SDS011;1336;48.692;9.144;2023-02-12T09:02:57;36.35;;;32.40;;
2652;SDS011;1336;48.692;9.144;2023-02-12T09:03:48;35.53;;;31.80;;
2652;SDS011;1336;48.692;9.144;2023-02-12T09:04:40;36.33;;;32.65;;
2652;SDS011;1336;48.692;9.144;2023-02-12T09:05:31;34.63;;;31.03;;
2652;SDS011;1336;48.692;9.144;2023-02-12T09:06:23;36.78;;;33.00;;
2652;SDS011;1336;48.692;9.144;2023-02-12T09:07:16;38.05;;;34.03;;
2652;SDS011;1336;48.692;9.144;2023-02-12T09:08:08;38.25;;;34.15;;
2652;SDS011;1336;48.692;9.144;2023-02-12T09:08:58;41.00;;;36.73;;
2652;SDS011;1336;48.692;9.144;2023-02-12T09:09:50;37.35;;;33.45;;
2652;SDS011;1336;48.692;9.144;2023-02-12T09:10:41;37.90;;;34.00;;
2652;SDS011;1336;48.692;9.144;2023-02-12T09:11:34;37.58;;;33.55;;
2652;SDS011;1336;48.692;9.144;2023-02-12T09:12:26;43.08;;;34.97;;
2652;SDS011;1336;48.692;9.144;2023-02-12T09:13:18;39.60;;;34.80;;
2652;SDS011;1336;48.692;9.144;2023-02-12T09:14:10;40.77;;;35.67;;
2652;SDS011;1336;48.692;9.144;2023-02-12T09:15:03;40.33;;;35.92;;
2652;SDS011;1336;48.692;9.144;2023-02-12T09:15:54;38.47;;;34.38;;
2652;SDS011;1336;48.692;9.144;2023-02-12T09:16:46;40.80;;;33.75;;
2652;SDS011;1336;48.692;9.144;2023-02-12T09:17:37;44.03;;;35.10;;
2652;SDS011;1336;48.692;9.144;2023-02-12T09:18:30;41.28;;;34.08;;
2652;SDS011;1336;48.692;9.144;2023-02-12T09:19:21;39.97;;;35.73;;
2652;SDS011;1336;48.692;9.144;2023-02-12T09:20:13;43.90;;;39.10;;
2652;SDS011;1336;48.692;9.144;2023-02-12T09:21:05;47.28;;;38.75;;
2652;SDS011;1336;48.692;9.144;2023-02-12T09:21:59;44.42;;;36.97;;
2652;SDS011;1336;48.692;9.144;2023-02-12T09:22:51;41.20;;;35.73;;
2652;SDS011;1336;48.692;9.144;2023-02-12T09:23:43;38.88;;;34.47;;
2652;SDS011;1336;48.692;9.144;2023-02-12T09:24:36;39.47;;;34.72;;
2652;SDS011;1336;48.692;9.144;2023-02-12T09:25:27;37.05;;;33.05;;
2652;SDS011;1336;48.692;9.144;2023-02-12T09:26:20;40.10;;;34.38;;
2652;SDS011;1336;48.692;9.144;2023-02-12T09:27:12;40.38;;;34.75;;
2652;SDS011;1336;48.692;9.144;2023-02-12T09:28:03;39.00;;;34.80;;
2652;SDS011;1336;48.692;9.144;2023-02-12T09:28:54;39.20;;;34.97;;
2652;SDS011;1336;48.692;9.144;2023-02-12T09:29:46;41.08;;;34.38;;
2652;SDS011;1336;48.692;9.144;2023-02-12T09:30:37;39.70;;;35.17;;
2652;SDS011;1336;48.692;9.144;2023-02-12T09:31:30;37.35;;;33.45;;
2652;SDS011;1336;48.692;9.144;2023-02-12T09:32:21;40.22;;;35.78;;
2652;SDS011;1336;48.692;9.144;2023-02-12T09:33:13;39.58;;;35.42;;
2652;SDS011;1336;48.692;9.144;2023-02-12T09:34:04;42.90;;;34.47;;
2652;SDS011;1336;48.692;9.144;2023-02-12T09:34:57;38.13;;;33.88;;
2652;SDS011;1336;48.692;9.144;2023-02-12T09:35:47;36.63;;;32.73;;
2652;SDS011;1336;48.692;9.144;2023-02-12T09:36:39;35.75;;;31.98;;
2652;SDS011;1336;48.692;9.144;2023-02-12T09:37:30;38.93;;;33.23;;
2652;SDS011;1336;48.692;9.144;2023-02-12T09:38:23;38.08;;;33.90;;
2652;SDS011;1336;48.692;9.144;2023-02-12T09:39:14;38.60;;;34.45;;
2652;SDS011;1336;48.692;9.144;2023-02-12T09:40:06;36.80;;;32.90;;
2652;SDS011;1336;48.692;9.144;2023-02-12T09:41:03;38.38;;;34.38;;
2652;SDS011;1336;48.692;9.144;2023-02-12T09:42:09;37.75;;;32.30;;
2652;SDS011;1336;48.692;9.144;2023-02-12T09:43:11;31.92;;;28.52;;
2652;SDS011;1336;48.692;9.144;2023-02-12T09:44:10;30.70;;;27.52;;
2652;SDS011;1336;48.692;9.144;2023-02-12T09:45:12;32.17;;;28.23;;
2652;SDS011;1336;48.692;9.144;2023-02-12T09:46:13;29.33;;;26.10;;
2652;SDS011;1336;48.692;9.144;2023-02-12T09:47:10;26.00;;;23.20;;
2652;SDS011;1336;48.692;9.144;2023-02-12T09:48:11;23.98;;;21.55;;
2652;SDS011;1336;48.692;9.144;2023-02-12T09:49:17;24.23;;;21.73;;
2652;SDS011;1336;48.692;9.144;2023-02-12T09:50:22;20.27;;;17.92;;
2652;SDS011;1336;48.692;9.144;2023-02-12T09:51:21;20.90;;;18.40;;
2652;SDS011;1336;48.692;9.144;2023-02-12T09:52:16;20.17;;;18.08;;
2652;SDS011;1336;48.692;9.144;2023-02-12T09:53:08;19.27;;;17.00;;
2652;SDS011;1336;48.692;9.144;2023-02-12T09:54:04;20.73;;;18.52;;
2652;SDS011;1336;48.692;9.144;2023-02-12T09:54:56;20.67;;;18.52;;
2652;SDS011;1336;48.692;9.144;2023-02-12T09:55:49;17.55;;;15.70;;
2652;SDS011;1336;48.692;9.144;2023-02-12T09:56:40;14.70;;;13.20;;
2652;SDS011;1336;48.692;9.144;2023-02-12T09:57:36;14.95;;;13.55;;
2652;SDS011;1336;48.692;9.144;2023-02-12T09:58:28;16.98;;;12.35;;
2652;SDS011;1336;48.692;9.144;2023-02-12T09:59:27;12.50;;;11.20;;
2652;SDS011;1336;48.692;9.144;2023-02-12T10:00:23;12.57;;;11.38;;
2652;SDS011;1336;48.692;9.144;2023-02-12T10:01:20;14.20;;;11.98;;
2652;SDS011;1336;48.692;9.144;2023-02-12T10:02:12;14.32;;;12.82;;
2652;SDS011;1336;48.692;9.144;2023-02-12T10:03:05;15.73;;;13.63;;
2652;SDS011;1336;48.692;9.144;2023-02-12T10:04:02;15.82;;;13.90;;
2652;SDS011;1336;48.692;9.144;2023-02-12T10:04:56;14.90;;;12.93;;
2652;SDS011;1336;48.692;9.144;2023-02-12T10:05:49;15.63;;;14.07;;
2652;SDS011;1336;48.692;9.144;2023-02-12T10:06:59;15.60;;;14.00;;
2652;SDS011;1336;48.692;9.144;2023-02-12T10:08:02;12.75;;;11.55;;
2652;SDS011;1336;48.692;9.144;2023-02-12T10:10:27;14.55;;;12.98;;
2652;SDS011;1336;48.692;9.144;2023-02-12T10:11:35;13.48;;;12.07;;
2652;SDS011;1336;48.692;9.144;2023-02-12T10:12:44;14.73;;;11.15;;
2652;SDS011;1336;48.692;9.144;2023-02-12T10:13:40;10.95;;;9.63;;
2652;SDS011;1336;48.692;9.144;2023-02-12T10:16:09;9.43;;;8.52;;
2652;SDS011;1336;48.692;9.144;2023-02-12T10:17:11;9.82;;;8.82;;
2652;SDS011;1336;48.692;9.144;2023-02-12T10:18:17;8.98;;;8.07;;
2652;SDS011;1336;48.692;9.144;2023-02-12T10:19:28;9.80;;;8.80;;
2652;SDS011;1336;48.692;9.144;2023-02-12T10:20:37;10.30;;;9.30;;
2652;SDS011;1336;48.692;9.144;2023-02-12T10:21:40;11.13;;;9.95;;
2652;SDS011;1336;48.692;9.144;2023-02-12T10:22:43;10.43;;;9.32;;
2652;SDS011;1336;48.692;9.144;2023-02-12T10:23:47;11.98;;;10.13;;
2652;SDS011;1336;48.692;9.144;2023-02-12T10:24:58;11.15;;;10.05;;
2652;SDS011;1336;48.692;9.144;2023-02-12T10:25:58;11.02;;;9.93;;
2652;SDS011;1336;48.692;9.144;2023-02-12T10:26:54;10.20;;;9.30;;
2652;SDS011;1336;48.692;9.144;2023-02-12T10:27:51;11.10;;;10.00;;
2652;SDS011;1336;48.692;9.144;2023-02-12T10:28:45;11.05;;;9.20;;
2652;SDS011;1336;48.692;9.144;2023-02-12T10:29:36;12.40;;;11.20;;
2652;SDS011;1336;48.692;9.144;2023-02-12T10:30:34;12.52;;;11.32;;
2652;SDS011;1336;48.692;9.144;2023-02-12T10:31:33;12.20;;;10.65;;
2652;SDS011;1336;48.692;9.144;2023-02-12T10:32:28;11.18;;;10.07;;
2652;SDS011;1336;48.692;9.144;2023-02-12T10:33:24;10.63;;;9.52;;
2652;SDS011;1336;48.692;9.144;2023-02-12T10:34:21;11.05;;;9.95;;
2652;SDS011;1336;48.692;9.144;2023-02-12T10:35:15;12.85;;;11.52;;
2652;SDS011;1336;48.692;9.144;2023-02-12T10:36:15;12.45;;;10.57;;
2652;SDS011;1336;48.692;9.144;2023-02-12T10:37:23;11.48;;;10.27;;
2652;SDS011;1336;48.692;9.144;2023-02-12T10:38:22;11.60;;;10.40;;
2652;SDS011;1336;48.692;9.144;2023-02-12T10:39:19;9.95;;;8.93;;
2652;SDS011;1336;48.692;9.144;2023-02-12T10:40:16;11.20;;;8.80;;
2652;SDS011;1336;48.692;9.144;2023-02-12T10:41:10;10.70;;;8.98;;
2652;SDS011;1336;48.692;9.144;2023-02-12T10:42:07;9.35;;;8.40;;
2652;SDS011;1336;48.692;9.144;2023-02-12T10:43:01;9.05;;;8.05;;
2652;SDS011;1336;48.692;9.144;2023-02-12T10:43:52;9.97;;;8.90;;
2652;SDS011;1336;48.692;9.144;2023-02-12T10:44:44;9.27;;;8.38;;
2652;SDS011;1336;48.692;9.144;2023-02-12T10:45:36;9.60;;;8.70;;
2652;SDS011;1336;48.692;9.144;2023-02-12T10:46:29;7.25;;;6.55;;
2652;SDS011;1336;48.692;9.144;2023-02-12T10:47:21;6.97;;;6.28;;
2652;SDS011;1336;48.692;9.144;2023-02-12T10:48:16;6.90;;;6.18;;
2652;SDS011;1336;48.692;9.144;2023-02-12T10:49:12;6.63;;;5.97;;
2652;SDS011;1336;48.692;9.144;2023-02-12T10:50:12;7.35;;;6.50;;
2652;SDS011;1336;48.692;9.144;2023-02-12T10:51:21;7.25;;;6.55;;
2652;SDS011;1336;48.692;9.144;2023-02-12T10:52:29;9.15;;;7.45;;
2652;SDS011;1336;48.692;9.144;2023-02-12T10:53:29;11.82;;;7.85;;
2652;SDS011;1336;48.692;9.144;2023-02-12T10:54:32;8.65;;;7.28;;
2652;SDS011;1336;48.692;9.144;2023-02-12T10:55:26;9.00;;;8.10;;
2652;SDS011;1336;48.692;9.144;2023-02-12T10:56:20;9.32;;;8.40;;
2652;SDS011;1336;48.692;9.144;2023-02-12T10:57:14;9.07;;;8.05;;
2652;SDS011;1336;48.692;9.144;2023-02-12T10:58:15;10.57;;;9.50;;
2652;SDS011;1336;48.692;9.144;2023-02-12T10:59:11;10.68;;;9.57;;
2652;SDS011;1336;48.692;9.144;2023-02-12T11:00:21;11.05;;;9.95;;
2652;SDS011;1336;48.692;9.144;2023-02-12T11:01:15;10.60;;;9.50;;
2652;SDS011;1336;48.692;9.144;2023-02-12T11:02:19;10.52;;;9.43;;
2652;SDS011;1336;48.692;9.144;2023-02-12T11:03:20;11.32;;;10.23;;
2652;SDS011;1336;48.692;9.144;2023-02-12T11:04:19;11.32;;;10.15;;
2652;SDS011;1336;48.692;9.144;2023-02-12T11:05:21;12.77;;;10.55;;
2652;SDS011;1336;48.692;9.144;2023-02-12T11:06:14;10.38;;;9.38;;
2652;SDS011;1336;48.692;9.144;2023-02-12T11:07:08;11.82;;;10.63;;
2652;SDS011;1336;48.692;9.144;2023-02-12T11:07:59;11.83;;;10.43;;
2652;SDS011;1336;48.692;9.144;2023-02-12T11:08:51;13.45;;;10.07;;
2652;SDS011;1336;48.692;9.144;2023-02-12T11:09:42;11.30;;;10.10;;
2652;SDS011;1336;48.692;9.144;2023-02-12T11:10:38;12.38;;;11.07;;
2652;SDS011;1336;48.692;9.144;2023-02-12T11:11:32;10.85;;;9.75;;
2652;SDS011;1336;48.692;9.144;2023-02-12T11:12:29;14.55;;;10.80;;
2652;SDS011;1336;48.692;9.144;2023-02-12T11:13:24;10.73;;;9.57;;
2652;SDS011;1336;48.692;9.144;2023-02-12T11:14:18;10.45;;;9.45;;
2652;SDS011;1336;48.692;9.144;2023-02-12T11:15:12;10.30;;;9.10;;
2652;SDS011;1336;48.692;9.144;2023-02-12T11:16:06;11.40;;;8.68;;
2652;SDS011;1336;48.692;9.144;2023-02-12T11:16:57;10.45;;;8.45;;
2652;SDS011;1336;48.692;9.144;2023-02-12T11:17:54;9.45;;;8.45;;
2652;SDS011;1336;48.692;9.144;2023-02-12T11:18:47;11.32;;;10.13;;
2652;SDS011;1336;48.692;9.144;2023-02-12T11:19:59;11.00;;;9.20;;
2652;SDS011;1336;48.692;9.144;2023-02-12T11:20:59;11.85;;;10.65;;
2652;SDS011;1336;48.692;9.144;2023-02-12T11:22:03;11.90;;;10.70;;
2652;SDS011;1336;48.692;9.144;2023-02-12T11:22:56;12.35;;;10.15;;
2652;SDS011;1336;48.692;9.144;2023-02-12T11:23:50;11.40;;;10.30;;
2652;SDS011;1336;48.692;9.144;2023-02-12T11:24:40;11.07;;;9.97;;
2652;SDS011;1336;48.692;9.144;2023-02-12T11:25:33;12.88;;;10.57;;
2652;SDS011;1336;48.692;9.144;2023-02-12T11:26:27;11.25;;;10.15;;
2652;SDS011;1336;48.692;9.144;2023-02-12T11:27:21;11.77;;;10.65;;